Time;durP1;ratioP1;P1;durP2;ratioP2;P2;SDS_P1;SDS_P2;PMS_P1;PMS_P2;Temp;Humidity;BMP_temperature;BMP_pressure;BME280_temperature;BME280_humidity;BME280_pressure;Samples;Min_cycle;Max_cycle;Signal;HPM_P1;HPM_P2
2022/08/26 00:00:52;;;;;;;14.60;11.13;;;23.30;99.90;;;;;;3059243;19;20029;-74
2022/08/26 00:01:57;;;;;;;;;;;23.20;99.90;;;;;;3059942;19;20567;-73
2022/08/26 00:02:58;;;;;;;16.25;10.25;;;23.20;99.90;;;;;;3059125;19;19927;-74
2022/08/26 00:04:03;;;;;;;21.27;11.38;;;23.20;99.90;;;;;;3059183;19;20070;-72
2022/08/26 00:05:05;;;;;;;19.50;11.70;;;23.20;99.90;;;;;;3059187;19;20015;-74
2022/08/26 00:06:09;;;;;;;14.70;11.38;;;23.40;99.90;;;;;;3059375;19;20003;-72
2022/08/26 00:07:10;;;;;;;16.27;10.98;;;23.40;99.90;;;;;;3059126;19;20006;-72
2022/08/26 00:08:16;;;;;;;17.50;11.25;;;23.30;99.90;;;;;;3059261;19;20006;-73
2022/08/26 00:09:17;;;;;;;16.40;10.85;;;23.40;99.90;;;;;;3059280;19;20494;-72
2022/08/26 00:10:22;;;;;;;15.65;10.27;;;23.40;99.90;;;;;;3059314;19;20491;-73
2022/08/26 00:11:23;;;;;;;14.00;10.32;;;23.50;99.90;;;;;;3059299;19;20035;-73
2022/08/26 00:12:27;;;;;;;16.35;10.68;;;23.50;99.90;;;;;;3059444;19;20015;-73
2022/08/26 00:13:28;;;;;;;16.02;10.82;;;23.50;99.90;;;;;;3059056;19;20018;-72
2022/08/26 00:14:32;;;;;;;12.18;10.13;;;23.40;99.90;;;;;;3059135;19;20024;-72
2022/08/26 00:15:39;;;;;;;17.50;10.32;;;23.60;99.90;;;;;;3059219;19;20039;-72
2022/08/26 00:16:44;;;;;;;13.85;9.68;;;23.50;99.90;;;;;;3058446;19;20025;-73
2022/08/26 00:17:46;;;;;;;14.93;10.40;;;23.40;99.90;;;;;;3058896;19;20521;-72
2022/08/26 00:18:50;;;;;;;16.90;10.80;;;23.70;99.90;;;;;;3059255;19;20036;-73
2022/08/26 00:19:52;;;;;;;15.98;11.02;;;23.40;99.90;;;;;;3058509;19;20513;-72
2022/08/26 00:20:56;;;;;;;14.88;11.13;;;23.50;99.90;;;;;;3059346;19;20373;-72
2022/08/26 00:21:57;;;;;;;16.13;10.18;;;23.80;99.90;;;;;;3058827;19;20027;-72
2022/08/26 00:23:02;;;;;;;14.60;10.40;;;23.50;99.90;;;;;;3059143;19;20002;-73
2022/08/26 00:24:04;;;;;;;15.52;10.88;;;23.60;99.90;;;;;;3058829;19;20361;-72
2022/08/26 00:25:10;;;;;;;15.27;10.45;;;23.60;99.90;;;;;;3059146;19;20037;-72
2022/08/26 00:26:12;;;;;;;12.18;10.15;;;23.70;99.90;;;;;;3058885;19;20027;-73
2022/08/26 00:27:16;;;;;;;16.90;10.57;;;23.30;99.90;;;;;;3058557;19;20014;-72
2022/08/26 00:28:18;;;;;;;16.27;10.85;;;23.40;99.90;;;;;;3058952;19;20042;-72
2022/08/26 00:29:22;;;;;;;15.90;10.35;;;23.50;99.90;;;;;;3059131;19;20035;-73
2022/08/26 00:30:26;;;;;;;14.50;10.18;;;23.50;99.90;;;;;;3058780;19;20022;-72
2022/08/26 00:31:33;;;;;;;18.92;10.15;;;23.50;99.90;;;;;;3059029;19;20382;-72
2022/08/26 00:32:34;;;;;;;14.63;10.45;;;23.40;99.90;;;;;;3058815;19;20010;-73
2022/08/26 00:33:38;;;;;;;;;;;23.40;99.90;;;;;;3059709;19;20028;-72
2022/08/26 00:34:39;;;;;;;15.48;10.60;;;23.50;99.90;;;;;;3058735;19;19914;-72
2022/08/26 00:35:44;;;;;;;17.65;10.48;;;23.50;99.90;;;;;;3058962;19;20024;-72
2022/08/26 00:36:45;;;;;;;15.75;10.70;;;23.50;99.90;;;;;;3058614;19;20010;-72
2022/08/26 00:37:50;;;;;;;16.77;10.55;;;23.30;99.90;;;;;;3058822;19;19998;-72
2022/08/26 00:38:51;;;;;;;15.57;10.93;;;23.40;99.90;;;;;;3058740;19;20032;-72
2022/08/26 00:39:55;;;;;;;14.60;9.82;;;23.30;99.90;;;;;;3058914;19;20595;-72
2022/08/26 00:40:56;;;;;;;18.90;10.85;;;23.20;99.90;;;;;;3058549;19;20014;-72
2022/08/26 00:42:00;;;;;;;;;;;23.40;99.90;;;;;;3059511;19;20015;-72
2022/08/26 00:43:05;;;;;;;13.38;10.07;;;23.10;99.90;;;;;;3058784;19;20337;-72
2022/08/26 00:44:09;;;;;;;18.67;10.98;;;23.30;99.90;;;;;;3058708;19;20010;-72
2022/08/26 00:45:15;;;;;;;17.70;11.18;;;23.10;99.90;;;;;;3058591;19;20082;-73
2022/08/26 00:46:20;;;;;;;15.32;11.00;;;23.30;99.90;;;;;;3058790;19;20002;-73
2022/08/26 00:47:34;;;;;;;16.70;10.32;;;23.20;99.90;;;;;;3058485;19;20016;-72
2022/08/26 00:48:37;;;;;;;14.88;10.65;;;23.20;99.90;;;;;;3058535;19;20096;-73
2022/08/26 00:49:44;;;;;;;17.15;10.63;;;23.40;99.90;;;;;;3059933;19;20010;-73
2022/08/26 00:50:53;;;;;;;16.85;11.10;;;23.10;99.90;;;;;;3058571;19;20006;-74
2022/08/26 00:51:59;;;;;;;14.63;10.45;;;23.20;99.90;;;;;;3057859;19;20014;-73
2022/08/26 00:53:20;;;;;;;13.48;10.80;;;23.10;99.90;;;;;;3057684;19;20011;-73
2022/08/26 00:54:26;;;;;;;16.45;11.15;;;23.20;99.90;;;;;;3058596;19;20019;-73
2022/08/26 00:55:32;;;;;;;15.43;10.40;;;23.00;99.90;;;;;;3058536;19;20017;-73
2022/08/26 00:56:39;;;;;;;13.75;10.57;;;23.20;99.90;;;;;;3058864;19;20233;-73
2022/08/26 00:57:41;;;;;;;15.70;10.05;;;23.00;99.90;;;;;;3058452;19;20011;-72
2022/08/26 00:58:46;;;;;;;13.43;10.73;;;22.90;99.90;;;;;;3058869;19;20007;-73
2022/08/26 00:59:53;;;;;;;16.17;10.85;;;23.10;99.90;;;;;;3058488;19;20082;-73
2022/08/26 01:00:57;;;;;;;14.10;11.00;;;23.00;99.90;;;;;;3058835;19;20074;-72
2022/08/26 01:01:59;;;;;;;17.00;11.35;;;23.20;99.90;;;;;;3058522;19;20384;-72
2022/08/26 01:03:06;;;;;;;20.48;11.10;;;23.10;99.90;;;;;;3058745;19;20003;-73
2022/08/26 01:04:08;;;;;;;16.08;10.75;;;23.20;99.90;;;;;;3058743;19;20097;-72
2022/08/26 01:05:13;;;;;;;13.73;10.85;;;23.00;99.90;;;;;;3058468;19;20007;-72
2022/08/26 01:06:15;;;;;;;14.60;10.82;;;23.00;99.90;;;;;;3058387;19;20022;-73
2022/08/26 01:07:20;;;;;;;15.43;10.75;;;23.10;99.90;;;;;;3058372;19;20476;-72
2022/08/26 01:08:21;;;;;;;13.55;10.70;;;22.90;99.90;;;;;;3057964;19;20010;-72
2022/08/26 01:09:25;;;;;;;;;;;22.90;99.90;;;;;;3059012;19;20018;-72
2022/08/26 01:10:30;;;;;;;18.08;12.40;;;22.90;99.90;;;;;;3058486;19;19974;-73
2022/08/26 01:11:34;;;;;;;16.30;12.15;;;22.90;99.90;;;;;;3058420;19;20464;-72
2022/08/26 01:12:44;;;;;;;19.80;13.63;;;22.80;99.90;;;;;;3058469;19;20370;-72
2022/08/26 01:13:48;;;;;;;17.95;13.13;;;22.90;99.90;;;;;;3058447;19;20039;-72
2022/08/26 01:14:50;;;;;;;16.30;13.48;;;22.90;99.90;;;;;;3058369;19;20010;-72
2022/08/26 01:15:58;;;;;;;16.95;12.60;;;22.80;99.90;;;;;;3058069;19;20002;-72
2022/08/26 01:17:02;;;;;;;20.10;14.00;;;22.70;99.90;;;;;;3058340;19;20010;-72
2022/08/26 01:18:09;;;;;;;20.80;14.27;;;22.80;99.90;;;;;;3058176;19;20006;-72
2022/08/26 01:19:18;;;;;;;22.25;15.43;;;22.50;99.90;;;;;;3058397;19;20014;-72
2022/08/26 01:20:30;;;;;;;19.38;13.98;;;22.60;99.90;;;;;;3057422;19;20018;-72
2022/08/26 01:21:38;;;;;;;23.48;16.20;;;22.50;99.90;;;;;;3057335;19;20007;-72
2022/08/26 01:22:53;;;;;;;22.45;16.38;;;22.40;99.90;;;;;;3057455;19;20015;-72
2022/08/26 01:23:56;;;;;;;19.67;15.30;;;22.60;99.90;;;;;;3058325;19;20006;-72
2022/08/26 01:25:02;;;;;;;23.27;16.48;;;22.40;99.90;;;;;;3058429;19;19999;-73
2022/08/26 01:26:07;;;;;;;20.67;16.52;;;22.40;99.90;;;;;;3058388;19;20006;-72
2022/08/26 01:27:14;;;;;;;26.70;16.98;;;22.40;99.90;;;;;;3058035;19;20013;-72
2022/08/26 01:28:20;;;;;;;26.23;16.10;;;22.40;99.90;;;;;;3057589;19;20022;-73
2022/08/26 01:29:25;;;;;;;22.10;17.83;;;22.70;99.90;;;;;;3058295;19;20467;-73
2022/08/26 01:30:29;;;;;;;26.80;17.27;;;22.50;99.90;;;;;;3063025;19;20034;-72
2022/08/26 01:31:40;;;;;;;24.67;17.30;;;22.30;99.90;;;;;;3064098;19;20010;-72
2022/08/26 01:32:42;;;;;;;25.35;17.58;;;22.50;99.90;;;;;;3063986;19;20495;-72
2022/08/26 01:33:54;;;;;;;26.15;19.05;;;22.30;99.90;;;;;;3064173;19;20006;-73
2022/08/26 01:34:56;;;;;;;23.60;19.27;;;22.30;99.90;;;;;;3064071;19;20021;-72
2022/08/26 01:36:00;;;;;;;25.77;20.23;;;22.30;99.90;;;;;;3064166;19;20401;-72
2022/08/26 01:37:07;;;;;;;27.52;19.95;;;22.20;99.90;;;;;;3063960;19;20011;-72
2022/08/26 01:38:14;;;;;;;30.35;20.77;;;22.50;99.90;;;;;;3063951;19;20118;-72
2022/08/26 01:39:16;;;;;;;35.35;22.50;;;22.40;99.90;;;;;;3063885;19;20017;-72
2022/08/26 01:40:26;;;;;;;29.15;20.70;;;22.40;99.90;;;;;;3064117;19;20013;-72
2022/08/26 01:41:27;;;;;;;30.85;22.02;;;22.20;99.90;;;;;;3063841;19;20043;-72
2022/08/26 01:42:31;;;;;;;31.08;22.55;;;22.40;99.90;;;;;;3064212;19;20081;-73
2022/08/26 01:43:36;;;;;;;30.52;22.05;;;22.20;99.90;;;;;;3063984;19;20014;-72
2022/08/26 01:44:45;;;;;;;30.65;22.45;;;22.20;99.90;;;;;;3063969;19;20485;-72
2022/08/26 01:45:48;;;;;;;30.75;23.27;;;22.20;99.90;;;;;;3063944;19;20011;-72
2022/08/26 01:46:54;;;;;;;28.25;22.40;;;22.10;99.90;;;;;;3063961;19;20455;-72
2022/08/26 01:48:00;;;;;;;28.63;21.30;;;22.20;99.90;;;;;;3063666;19;20006;-72
2022/08/26 01:49:07;;;;;;;30.35;22.95;;;22.10;99.90;;;;;;3064516;19;20014;-72
2022/08/26 01:50:14;;;;;;;26.65;22.00;;;22.10;99.90;;;;;;3063382;19;20358;-72
2022/08/26 01:51:20;;;;;;;36.63;23.48;;;22.20;99.90;;;;;;3063738;19;20006;-72
2022/08/26 01:52:24;;;;;;;32.17;21.38;;;21.90;99.90;;;;;;3064135;19;20007;-72
2022/08/26 01:53:31;;;;;;;34.67;23.15;;;22.20;99.90;;;;;;3063862;19;20047;-72
2022/08/26 01:54:33;;;;;;;34.85;24.38;;;21.90;99.90;;;;;;3063920;19;20022;-71
2022/08/26 01:55:39;;;;;;;31.85;24.08;;;21.70;99.90;;;;;;3063909;19;20027;-72
2022/08/26 01:56:40;;;;;;;40.00;24.33;;;22.00;99.90;;;;;;3063869;19;20006;-72
2022/08/26 01:57:45;;;;;;;35.95;24.92;;;21.80;99.90;;;;;;3062653;19;20379;-73
2022/08/26 01:58:51;;;;;;;35.50;23.25;;;21.50;99.90;;;;;;3063027;19;20025;-72
2022/08/26 02:00:00;;;;;;;36.33;24.83;;;21.60;99.90;;;;;;3063736;19;20014;-73
2022/08/26 02:01:02;;;;;;;37.03;24.60;;;21.70;99.90;;;;;;3063838;19;20022;-72
2022/08/26 02:02:06;;;;;;;37.80;25.38;;;21.70;99.90;;;;;;3063665;19;20010;-72
2022/08/26 02:03:17;;;;;;;33.95;22.88;;;21.50;99.90;;;;;;3063853;19;20019;-73
2022/08/26 02:04:25;;;;;;;31.67;22.67;;;21.40;99.90;;;;;;3063643;19;20356;-72
2022/08/26 02:05:27;;;;;;;38.67;24.75;;;21.60;99.90;;;;;;3063860;19;20094;-73
2022/08/26 02:06:31;;;;;;;38.95;26.60;;;21.30;99.90;;;;;;3063637;19;20029;-72
2022/08/26 02:07:33;;;;;;;35.85;23.35;;;21.50;99.90;;;;;;3063693;19;20019;-72
2022/08/26 02:08:42;;;;;;;38.22;24.63;;;21.40;99.90;;;;;;3062935;19;20108;-72
2022/08/26 02:09:43;;;;;;;33.17;23.17;;;21.40;99.90;;;;;;3063598;19;20015;-73
2022/08/26 02:10:47;;;;;;;38.75;24.00;;;21.40;99.90;;;;;;3063537;19;20036;-72
2022/08/26 02:11:49;;;;;;;38.78;24.13;;;21.60;99.90;;;;;;3063804;19;20003;-73
2022/08/26 02:12:53;;;;;;;38.53;24.10;;;21.70;99.90;;;;;;3063526;19;20396;-72
2022/08/26 02:13:58;;;;;;;43.28;23.85;;;21.60;99.90;;;;;;3063556;19;20013;-72
2022/08/26 02:15:05;;;;;;;38.58;23.05;;;21.50;99.90;;;;;;3063584;19;20009;-73
2022/08/26 02:16:07;;;;;;;36.35;23.48;;;21.50;99.90;;;;;;3063228;19;20047;-73
2022/08/26 02:17:12;;;;;;;37.25;21.80;;;21.50;99.90;;;;;;3063648;19;20006;-72
2022/08/26 02:18:13;;;;;;;36.45;22.15;;;21.60;99.90;;;;;;3063793;19;20031;-72
2022/08/26 02:19:20;;;;;;;34.90;22.60;;;21.60;99.90;;;;;;3063341;19;20014;-72
2022/08/26 02:20:22;;;;;;;43.85;24.15;;;21.50;99.90;;;;;;3063534;19;20422;-73
2022/08/26 02:21:26;;;;;;;;;;;21.60;99.90;;;;;;3064213;19;20018;-72
2022/08/26 02:22:29;;;;;;;36.63;22.05;;;21.60;99.90;;;;;;3063510;19;19923;-73
2022/08/26 02:23:33;;;;;;;35.33;22.65;;;21.50;99.90;;;;;;3063514;19;20043;-72
2022/08/26 02:24:50;;;;;;;39.47;22.63;;;21.50;99.90;;;;;;3063504;19;20006;-72
2022/08/26 02:25:59;;;;;;;36.72;21.40;;;21.40;99.90;;;;;;3063779;19;20007;-72
2022/08/26 02:27:01;;;;;;;40.90;21.48;;;21.30;99.90;;;;;;3063038;19;20015;-73
2022/08/26 02:28:05;;;;;;;39.13;22.40;;;21.40;99.90;;;;;;3063649;19;20451;-73
2022/08/26 02:29:12;;;;;;;35.92;20.48;;;21.20;99.90;;;;;;3063471;19;20030;-73
2022/08/26 02:30:19;;;;;;;37.17;22.17;;;21.50;99.90;;;;;;3062965;19;20015;-73
2022/08/26 02:31:20;;;;;;;36.00;21.10;;;21.20;99.90;;;;;;3062652;19;20084;-72
2022/08/26 02:32:25;;;;;;;38.30;21.88;;;21.30;99.90;;;;;;3063784;19;20006;-72
2022/08/26 02:33:27;;;;;;;39.83;22.10;;;21.50;99.90;;;;;;3063960;19;20014;-73
2022/08/26 02:34:33;;;;;;;41.08;23.80;;;21.30;99.90;;;;;;3064348;19;20355;-73
2022/08/26 02:35:36;;;;;;;35.03;22.35;;;21.20;99.90;;;;;;3064800;19;20011;-72
2022/08/26 02:36:39;;;;;;;36.88;22.38;;;21.20;99.90;;;;;;3064731;19;20010;-72
2022/08/26 02:37:41;;;;;;;39.40;20.80;;;21.30;99.90;;;;;;3063761;19;20017;-73
2022/08/26 02:38:45;;;;;;;39.70;23.50;;;21.20;99.90;;;;;;3063936;19;20033;-73
2022/08/26 02:39:49;;;;;;;40.15;22.63;;;21.20;99.90;;;;;;3064148;19;20021;-73
2022/08/26 02:40:53;;;;;;;36.03;20.55;;;21.40;99.90;;;;;;3064153;19;20014;-73
2022/08/26 02:41:56;;;;;;;35.15;21.85;;;21.40;99.90;;;;;;3058396;19;20020;-73
2022/08/26 02:43:00;;;;;;;38.47;22.05;;;21.20;99.90;;;;;;3060701;19;20013;-72
2022/08/26 02:44:01;;;;;;;39.40;23.42;;;21.40;99.90;;;;;;3060514;19;20464;-73
2022/08/26 02:45:06;;;;;;;40.70;23.35;;;21.30;99.90;;;;;;3060553;19;20002;-73
2022/08/26 02:46:07;;;;;;;41.88;23.63;;;21.50;99.90;;;;;;3060453;19;20019;-73
2022/08/26 02:47:11;;;;;;;36.60;22.98;;;21.40;99.90;;;;;;3060671;19;20050;-73
2022/08/26 02:48:18;;;;;;;35.25;22.77;;;21.30;99.90;;;;;;3060184;19;20476;-73
2022/08/26 02:49:19;;;;;;;40.15;23.10;;;21.60;99.90;;;;;;3061141;19;20058;-72
2022/08/26 02:50:23;;;;;;;40.97;23.60;;;21.30;99.90;;;;;;3060549;19;20019;-72
2022/08/26 02:51:25;;;;;;;38.72;23.58;;;21.50;99.90;;;;;;3060230;19;20007;-72
2022/08/26 02:52:29;;;;;;;38.63;22.35;;;21.40;99.90;;;;;;3060283;19;20086;-72
2022/08/26 02:53:30;;;;;;;39.50;21.92;;;21.40;99.90;;;;;;3060247;19;20414;-73
2022/08/26 02:54:34;;;;;;;38.58;21.65;;;21.30;99.90;;;;;;3060405;19;20039;-72
2022/08/26 02:55:39;;;;;;;37.50;23.40;;;21.20;99.90;;;;;;3060348;19;20031;-73
2022/08/26 02:56:44;;;;;;;39.75;22.80;;;21.30;99.90;;;;;;3060226;19;20104;-72
2022/08/26 02:57:45;;;;;;;38.97;22.85;;;21.20;99.90;;;;;;3060180;19;20010;-73
2022/08/26 02:58:49;;;;;;;42.22;23.33;;;21.30;99.90;;;;;;3060188;19;20007;-72
2022/08/26 02:59:50;;;;;;;36.90;22.08;;;21.20;99.90;;;;;;3060277;19;20097;-73
2022/08/26 03:00:54;;;;;;;37.67;22.33;;;21.40;99.90;;;;;;3060140;19;20010;-72
2022/08/26 03:01:56;;;;;;;43.55;23.42;;;21.00;99.90;;;;;;3060026;19;20484;-73
2022/08/26 03:03:00;;;;;;;41.05;21.45;;;21.30;99.90;;;;;;3060209;19;20002;-72
2022/08/26 03:04:04;;;;;;;40.22;22.02;;;21.20;99.90;;;;;;3060089;19;20003;-72
2022/08/26 03:05:10;;;;;;;41.42;21.33;;;21.30;99.90;;;;;;3059990;19;20468;-73
2022/08/26 03:06:11;;;;;;;37.85;20.80;;;21.20;99.90;;;;;;3060032;19;20011;-73
2022/08/26 03:07:15;;;;;;;43.17;22.45;;;21.10;99.90;;;;;;3060336;19;20013;-73
2022/08/26 03:08:16;;;;;;;32.17;19.98;;;21.10;99.90;;;;;;3059840;19;20022;-72
2022/08/26 03:09:20;;;;;;;42.10;21.98;;;21.10;99.90;;;;;;3059083;19;20077;-73
2022/08/26 03:10:22;;;;;;;36.63;22.27;;;21.20;99.90;;;;;;3059741;19;20472;-72
2022/08/26 03:11:29;;;;;;;36.63;21.15;;;21.10;99.90;;;;;;3060251;19;20007;-72
2022/08/26 03:12:31;;;;;;;38.67;24.17;;;21.10;99.90;;;;;;3059882;19;20517;-73
2022/08/26 03:13:35;;;;;;;39.40;22.60;;;21.20;99.90;;;;;;3060017;19;20038;-72
2022/08/26 03:14:36;;;;;;;37.00;21.45;;;21.00;99.90;;;;;;3060206;19;20078;-73
2022/08/26 03:15:40;;;;;;;34.47;20.13;;;21.30;99.90;;;;;;3060135;19;20041;-73
2022/08/26 03:16:42;;;;;;;41.70;22.73;;;21.20;99.90;;;;;;3058987;19;20035;-73
2022/08/26 03:17:46;;;;;;;37.80;21.98;;;21.20;99.90;;;;;;3060227;19;20014;-72
2022/08/26 03:18:47;;;;;;;45.40;23.20;;;21.20;99.90;;;;;;3059731;19;20385;-72
2022/08/26 03:19:51;;;;;;;36.70;21.45;;;20.80;99.90;;;;;;3059853;19;20003;-72
2022/08/26 03:20:53;;;;;;;45.00;23.02;;;21.20;99.90;;;;;;3059948;19;20043;-72
2022/08/26 03:21:57;;;;;;;43.55;23.02;;;20.80;99.90;;;;;;3059908;19;20062;-72
2022/08/26 03:22:58;;;;;;;40.70;22.25;;;20.80;99.90;;;;;;3059874;19;20031;-72
2022/08/26 03:24:02;;;;;;;43.92;23.23;;;20.80;99.90;;;;;;3059925;19;20468;-73
2022/08/26 03:25:07;;;;;;;43.80;24.25;;;20.80;99.90;;;;;;3059812;19;20108;-72
2022/08/26 03:26:12;;;;;;;39.88;21.38;;;20.70;99.90;;;;;;3059934;19;20066;-73
2022/08/26 03:27:16;;;;;;;43.85;23.08;;;20.80;99.90;;;;;;3059175;19;20022;-72
2022/08/26 03:28:20;;;;;;;39.95;20.90;;;20.80;99.90;;;;;;3059834;19;20018;-72
2022/08/26 03:30:38;;;;;;;37.83;21.35;;;20.90;99.90;;;;;;3060018;19;20006;-73
2022/08/26 03:31:40;;;;;;;41.05;20.90;;;20.90;99.90;;;;;;3059612;19;20489;-72
2022/08/26 03:32:44;;;;;;;38.00;20.30;;;21.00;99.90;;;;;;3059813;19;20012;-72
2022/08/26 03:33:46;;;;;;;41.10;20.33;;;20.90;99.90;;;;;;3059565;19;20014;-72
2022/08/26 03:34:51;;;;;;;40.25;21.42;;;21.00;99.90;;;;;;3059984;19;20006;-72
2022/08/26 03:35:54;;;;;;;39.85;21.95;;;21.10;99.90;;;;;;3059556;19;20335;-73
2022/08/26 03:36:58;;;;;;;41.65;22.70;;;21.10;99.90;;;;;;3059798;19;19998;-73
2022/08/26 03:38:00;;;;;;;50.50;24.75;;;21.10;99.90;;;;;;3059529;19;20003;-73
2022/08/26 03:39:04;;;;;;;46.88;27.15;;;21.30;99.90;;;;;;3059881;19;20007;-73
2022/08/26 03:40:08;;;;;;;51.00;25.75;;;21.20;99.90;;;;;;3059499;19;20014;-72
2022/08/26 03:41:12;;;;;;;44.85;25.65;;;21.10;99.90;;;;;;3059642;19;20011;-73
2022/08/26 03:42:16;;;;;;;43.53;24.15;;;21.20;99.90;;;;;;3059628;19;20488;-73
2022/08/26 03:43:21;;;;;;;39.17;23.60;;;21.20;99.90;;;;;;3059642;19;20480;-72
2022/08/26 03:44:22;;;;;;;38.42;22.92;;;21.20;99.90;;;;;;3059589;19;20074;-73
2022/08/26 03:45:26;;;;;;;40.30;22.25;;;21.30;99.90;;;;;;3059747;19;20049;-73
2022/08/26 03:46:27;;;;;;;47.70;23.17;;;21.20;99.90;;;;;;3059665;19;20018;-73
2022/08/26 03:47:32;;;;;;;38.70;21.65;;;21.30;99.90;;;;;;3059980;19;20006;-72
2022/08/26 03:48:34;;;;;;;39.00;21.83;;;21.40;99.90;;;;;;3059307;19;20039;-73
2022/08/26 03:49:38;;;;;;;35.67;21.38;;;21.20;99.90;;;;;;3059062;19;20468;-72
2022/08/26 03:50:39;;;;;;;46.40;23.27;;;21.30;99.90;;;;;;3059570;19;20014;-73
2022/08/26 03:51:43;;;;;;;38.47;21.30;;;21.40;99.90;;;;;;3059673;19;20019;-72
2022/08/26 03:52:45;;;;;;;39.67;23.60;;;21.20;99.90;;;;;;3059062;19;20490;-73
2022/08/26 03:53:49;;;;;;;37.78;22.75;;;21.20;99.90;;;;;;3059256;19;20006;-72
2022/08/26 03:54:50;;;;;;;40.30;26.42;;;21.40;99.90;;;;;;3059328;19;20017;-73
2022/08/26 03:55:54;;;;;;;46.38;25.95;;;21.30;99.90;;;;;;3059705;19;20024;-72
2022/08/26 03:56:55;;;;;;;50.13;26.15;;;21.40;99.90;;;;;;3059304;19;20021;-73
2022/08/26 03:58:02;;;;;;;46.00;25.67;;;21.10;99.90;;;;;;3059492;19;20043;-73
2022/08/26 03:59:04;;;;;;;40.97;24.55;;;21.30;99.90;;;;;;3059384;19;20033;-73
2022/08/26 04:00:10;;;;;;;;;;;21.20;99.90;;;;;;3060173;19;20002;-72
2022/08/26 04:01:13;;;;;;;44.00;24.88;;;21.20;99.90;;;;;;3059354;19;20392;-73
2022/08/26 04:02:17;;;;;;;47.47;25.20;;;21.20;99.90;;;;;;3059378;19;20009;-73
2022/08/26 04:03:56;;;;;;;46.72;24.35;;;22.80;99.90;;;;;;3059598;19;20011;-73
2022/08/26 04:04:43;;;;;;;46.35;24.25;;;21.20;99.90;;;;;;3059029;19;20080;-72
2022/08/26 04:05:44;;;;;;;40.33;22.73;;;21.20;99.90;;;;;;3059313;19;20135;-73
2022/08/26 04:06:48;;;;;;;45.95;24.40;;;21.00;99.90;;;;;;3059221;19;20043;-72
2022/08/26 04:07:50;;;;;;;42.40;22.73;;;21.10;99.90;;;;;;3059573;19;19999;-73
2022/08/26 04:08:59;;;;;;;39.55;22.00;;;21.20;99.90;;;;;;3058961;19;20068;-72
2022/08/26 04:10:01;;;;;;;41.53;22.40;;;21.20;99.90;;;;;;3059151;19;20100;-72
2022/08/26 04:11:05;;;;;;;44.80;23.63;;;21.00;99.90;;;;;;3059294;19;20018;-72
2022/08/26 04:12:09;;;;;;;44.22;24.65;;;21.00;99.90;;;;;;3059439;19;20006;-73
2022/08/26 04:13:14;;;;;;;44.63;23.50;;;21.10;99.90;;;;;;3059096;19;20023;-73
2022/08/26 04:14:21;;;;;;;40.70;23.30;;;21.10;99.90;;;;;;3059080;19;20011;-73
2022/08/26 04:15:23;;;;;;;43.20;23.92;;;21.20;99.90;;;;;;3059127;19;20022;-73
2022/08/26 04:16:28;;;;;;;44.08;25.20;;;21.20;99.90;;;;;;3058593;19;20014;-75
2022/08/26 04:17:29;;;;;;;40.47;23.55;;;21.20;99.90;;;;;;3059056;19;20010;-74
2022/08/26 04:18:35;;;;;;;45.38;22.98;;;21.10;99.90;;;;;;3059115;19;20018;-74
2022/08/26 04:19:36;;;;;;;43.92;24.92;;;21.10;99.90;;;;;;3058577;19;20500;-74
2022/08/26 04:20:40;;;;;;;45.70;24.02;;;21.10;99.90;;;;;;3059167;19;20018;-74
2022/08/26 04:21:43;;;;;;;40.40;23.25;;;21.10;99.90;;;;;;3058961;19;20386;-73
2022/08/26 04:22:47;;;;;;;41.67;23.48;;;21.40;99.90;;;;;;3059290;19;20011;-73
2022/08/26 04:23:48;;;;;;;44.92;24.45;;;21.30;99.90;;;;;;3058906;19;20010;-73
2022/08/26 04:24:52;;;;;;;44.67;22.42;;;21.30;99.90;;;;;;3059282;19;20090;-73
2022/08/26 04:25:53;;;;;;;38.85;22.42;;;21.40;99.90;;;;;;3058884;19;20022;-74
2022/08/26 04:26:57;;;;;;;39.30;22.55;;;21.30;99.90;;;;;;3058821;19;19998;-74
2022/08/26 04:27:59;;;;;;;44.80;22.38;;;21.40;99.90;;;;;;3058669;19;20382;-74
2022/08/26 04:29:07;;;;;;;40.70;22.58;;;21.30;99.90;;;;;;3058716;19;19998;-73
2022/08/26 04:30:10;;;;;;;40.50;23.15;;;21.30;99.90;;;;;;3058770;19;20480;-73
2022/08/26 04:31:16;;;;;;;43.90;23.67;;;21.40;99.90;;;;;;3059121;19;20077;-74
2022/08/26 04:32:20;;;;;;;37.90;22.52;;;21.20;99.90;;;;;;3058869;19;20003;-74
2022/08/26 04:33:21;;;;;;;41.25;22.20;;;21.00;99.90;;;;;;3058835;19;20018;-74
2022/08/26 04:34:27;;;;;;;38.35;21.80;;;21.20;99.90;;;;;;3058846;19;20036;-74
2022/08/26 04:35:31;;;;;;;39.20;21.42;;;21.10;99.90;;;;;;3059054;19;19999;-73
2022/08/26 04:36:32;;;;;;;41.85;21.45;;;21.30;99.90;;;;;;3058914;19;20014;-74
2022/08/26 04:37:36;;;;;;;38.42;22.35;;;21.20;99.90;;;;;;3058913;19;20031;-73
2022/08/26 04:38:37;;;;;;;44.80;22.58;;;21.20;99.90;;;;;;3058677;19;20495;-73
2022/08/26 04:39:41;;;;;;;38.95;21.70;;;21.30;99.90;;;;;;3059097;19;19998;-74
2022/08/26 04:40:43;;;;;;;39.53;20.95;;;21.20;99.90;;;;;;3058606;19;20011;-73
2022/08/26 04:41:49;;;;;;;43.67;22.58;;;21.10;99.90;;;;;;3058821;19;20006;-74
2022/08/26 04:42:50;;;;;;;37.50;20.25;;;21.10;99.90;;;;;;3058736;19;20003;-73
2022/08/26 04:43:54;;;;;;;43.80;21.73;;;21.20;99.90;;;;;;3059028;19;20070;-73
2022/08/26 04:44:58;;;;;;;39.47;21.20;;;21.40;99.90;;;;;;3058899;19;20022;-74
2022/08/26 04:46:04;;;;;;;40.10;21.00;;;21.20;99.90;;;;;;3058589;19;20090;-74
2022/08/26 04:47:08;;;;;;;35.95;20.85;;;21.30;99.90;;;;;;3058671;19;20002;-73
2022/08/26 04:48:10;;;;;;;33.70;20.52;;;21.20;99.90;;;;;;3058573;19;20014;-73
2022/08/26 04:49:13;;;;;;;;;;;21.10;99.90;;;;;;3060248;19;20010;-73
2022/08/26 04:50:16;;;;;;;38.58;20.17;;;21.40;99.90;;;;;;3058794;19;19935;-74
2022/08/26 04:51:26;;;;;;;37.63;19.23;;;21.20;99.90;;;;;;3058865;19;20045;-74
2022/08/26 04:52:27;;;;;;;37.95;19.17;;;21.20;99.90;;;;;;3058738;19;20014;-74
2022/08/26 04:53:31;;;;;;;35.72;19.52;;;21.10;99.90;;;;;;3058549;19;20501;-74
2022/08/26 04:54:32;;;;;;;33.70;19.10;;;21.40;99.90;;;;;;3058688;19;20014;-74
2022/08/26 04:55:36;;;;;;;37.38;18.30;;;21.20;99.90;;;;;;3058622;19;20013;-74
2022/08/26 04:56:41;;;;;;;37.00;16.98;;;21.40;99.90;;;;;;3058494;19;20010;-74
2022/08/26 04:57:45;;;;;;;44.55;20.83;;;21.30;99.90;;;;;;3058803;19;20098;-73
2022/08/26 04:58:48;;;;;;;47.92;18.92;;;21.40;99.90;;;;;;3058520;19;20026;-74
2022/08/26 04:59:52;;;;;;;36.20;18.63;;;21.40;99.90;;;;;;3058744;19;20007;-73
2022/08/26 05:00:57;;;;;;;42.63;19.58;;;21.50;99.90;;;;;;3058707;19;20026;-73
2022/08/26 05:02:02;;;;;;;36.10;19.38;;;21.60;99.90;;;;;;3058657;19;20006;-74
2022/08/26 05:03:03;;;;;;;38.22;19.52;;;21.50;99.90;;;;;;3058619;19;20081;-74
2022/08/26 05:04:07;;;;;;;41.08;19.70;;;21.30;99.90;;;;;;3058680;19;20006;-74
2022/08/26 05:05:09;;;;;;;35.10;18.80;;;21.40;99.90;;;;;;3056522;19;20007;-73
2022/08/26 05:06:13;;;;;;;34.13;17.75;;;21.40;99.90;;;;;;3058512;19;20009;-73
2022/08/26 05:07:15;;;;;;;35.83;17.25;;;21.30;99.90;;;;;;3058834;19;20073;-74
2022/08/26 05:08:21;;;;;;;35.63;18.17;;;21.30;99.90;;;;;;3058690;19;20014;-74
2022/08/26 05:09:22;;;;;;;40.13;18.65;;;21.40;99.90;;;;;;3058164;19;20018;-74
2022/08/26 05:10:27;;;;;;;39.78;18.75;;;21.40;99.90;;;;;;3058500;19;20006;-73
2022/08/26 05:11:29;;;;;;;32.60;18.70;;;21.40;99.90;;;;;;3058355;19;20006;-73
2022/08/26 05:12:33;;;;;;;37.30;18.15;;;21.50;99.90;;;;;;3058587;19;20039;-74
2022/08/26 05:13:37;;;;;;;34.95;17.70;;;21.40;99.90;;;;;;3058369;19;20070;-73
2022/08/26 05:14:42;;;;;;;38.00;17.83;;;21.40;99.90;;;;;;3058333;19;20074;-73
2022/08/26 05:15:44;;;;;;;36.63;18.35;;;21.40;99.90;;;;;;3058205;19;20014;-73
2022/08/26 05:16:51;;;;;;;41.75;18.48;;;21.50;99.90;;;;;;3057758;19;20015;-73
2022/08/26 05:17:52;;;;;;;32.80;16.90;;;21.60;99.90;;;;;;3058229;19;20011;-75
2022/08/26 05:18:56;;;;;;;35.88;18.83;;;21.50;99.90;;;;;;3058434;19;20074;-73
2022/08/26 05:19:58;;;;;;;36.13;18.92;;;21.40;99.90;;;;;;3057805;19;20011;-74
2022/08/26 05:21:03;;;;;;;35.95;18.92;;;21.60;99.90;;;;;;3058369;19;20018;-73
2022/08/26 05:22:05;;;;;;;31.58;18.10;;;21.30;99.90;;;;;;3058119;19;20424;-73
2022/08/26 05:23:10;;;;;;;42.25;18.17;;;21.30;99.90;;;;;;3058323;19;20508;-73
2022/08/26 05:24:11;;;;;;;35.95;18.65;;;21.40;99.90;;;;;;3058428;19;20007;-74
2022/08/26 05:25:16;;;;;;;38.25;19.00;;;21.40;99.90;;;;;;3058458;19;20015;-74
2022/08/26 05:26:18;;;;;;;38.55;18.30;;;21.50;99.90;;;;;;3058079;19;20018;-73
2022/08/26 05:27:22;;;;;;;37.28;18.40;;;21.50;99.90;;;;;;3057869;19;20086;-73